createdAt,value
2018-11-21T00:06:55.717Z,37.43
2018-11-21T00:17:13.898Z,35.07
2018-11-21T00:27:31.702Z,36.27
2018-11-21T00:37:49.699Z,37.10
2018-11-21T00:48:07.923Z,31.77
2018-11-21T00:58:25.582Z,32.10
2018-11-21T01:08:43.853Z,33.83
2018-11-21T01:19:02.531Z,37.37
2018-11-21T01:29:20.724Z,34.57
2018-11-21T01:39:39.252Z,42.07
2018-11-21T01:49:57.213Z,34.97
2018-11-21T02:00:15.487Z,38.13
2018-11-21T02:10:33.627Z,38.00
2018-11-21T02:20:52.881Z,37.60
2018-11-21T02:31:10.691Z,37.87
2018-11-21T02:41:29.075Z,35.00
2018-11-21T02:51:46.953Z,35.30
2018-11-21T03:02:05.294Z,35.87
2018-11-21T03:12:24.256Z,34.20
2018-11-21T03:22:42.112Z,35.80
2018-11-21T03:33:00.152Z,35.17
2018-11-21T03:43:18.403Z,38.63
2018-11-21T03:53:36.898Z,34.57
2018-11-21T04:03:55.122Z,55.87
2018-11-21T04:14:13.241Z,42.17
2018-11-21T04:24:31.212Z,40.07
2018-11-21T04:34:49.242Z,49.47
2018-11-21T04:45:08.262Z,37.77
2018-11-21T04:55:26.046Z,36.30
2018-11-21T05:05:44.477Z,35.30
2018-11-21T05:16:03.225Z,34.43
2018-11-21T05:26:21.411Z,32.50
2018-11-21T05:36:39.667Z,29.90
2018-11-21T05:46:58.217Z,30.53
2018-11-21T05:57:16.310Z,28.67
2018-11-21T06:07:34.256Z,33.87
2018-11-21T06:17:52.122Z,31.97
2018-11-21T06:28:09.987Z,29.30
2018-11-21T06:38:28.495Z,45.00
2018-11-21T06:48:47.102Z,41.73
2018-11-21T06:59:05.300Z,32.83
2018-11-21T07:09:23.260Z,31.90
2018-11-21T07:19:41.397Z,35.83
2018-11-21T07:29:59.341Z,38.53
2018-11-21T07:40:17.113Z,32.80
2018-11-21T07:50:35.207Z,33.50
2018-11-21T08:01:21.811Z,115.23
2018-11-21T08:11:57.387Z,283.03
2018-11-21T08:22:33.162Z,34.47
2018-11-21T08:32:51.276Z,32.97
2018-11-21T08:43:09.108Z,29.77
2018-11-21T08:53:26.790Z,28.10
2018-11-21T09:03:45.141Z,26.37
2018-11-21T09:14:03.061Z,31.73
2018-11-21T09:24:21.112Z,25.70
2018-11-21T09:34:41.922Z,22.57
2018-11-21T09:45:00.789Z,19.57
2018-11-21T09:55:18.944Z,18.97
2018-11-21T10:05:37.029Z,19.93
2018-11-21T10:15:55.034Z,21.07
2018-11-21T10:26:12.981Z,28.97
2018-11-21T10:36:30.790Z,16.33
2018-11-21T10:46:48.996Z,22.60
2018-11-21T10:57:06.970Z,17.47
2018-11-21T11:07:47.651Z,16.93
2018-11-21T11:18:23.175Z,18.00
2018-11-21T11:28:58.844Z,16.87
2018-11-21T11:39:51.236Z,68.17
2018-11-21T11:50:33.989Z,14.57
2018-11-21T12:01:19.912Z,26.97
2018-11-21T12:11:55.992Z,34.70
2018-11-21T12:22:32.781Z,25.13
2018-11-21T12:33:15.543Z,29.27
2018-11-21T12:43:48.465Z,263.47
2018-11-21T12:54:25.706Z,36.30
2018-11-21T13:05:11.246Z,24.47
2018-11-21T13:16:07.087Z,46.10
2018-11-21T13:26:50.439Z,28.33
2018-11-21T13:37:27.700Z,21.53
2018-11-21T13:48:04.913Z,18.87
2018-11-21T13:58:24.229Z,19.93
2018-11-21T14:08:42.157Z,18.97
2018-11-21T14:19:00.695Z,19.90
2018-11-21T14:29:19.144Z,20.57
2018-11-21T14:39:37.361Z,19.73
2018-11-21T14:49:57.971Z,18.30
2018-11-21T15:00:18.011Z,25.23
2018-11-21T15:10:35.985Z,23.67
2018-11-21T15:20:56.218Z,25.73
2018-11-21T15:31:12.061Z,27.87
2018-11-21T15:41:31.160Z,25.93
2018-11-21T15:51:49.229Z,25.23
2018-11-21T16:02:07.432Z,39.10
2018-11-21T16:12:25.926Z,40.60
2018-11-21T16:22:44.117Z,31.23
2018-11-21T16:33:02.176Z,33.43
2018-11-21T16:43:20.231Z,33.03
2018-11-21T16:53:38.388Z,32.10
2018-11-21T17:03:57.045Z,40.33
2018-11-21T17:14:15.205Z,36.07
2018-11-21T17:24:32.976Z,33.00
2018-11-21T17:34:51.764Z,37.07
2018-11-21T17:45:10.685Z,36.00
2018-11-21T17:55:29.882Z,36.07
2018-11-21T18:05:47.783Z,211.73
2018-11-21T18:16:05.704Z,65.20
2018-11-21T18:26:24.210Z,50.13
2018-11-21T18:36:42.504Z,61.33
2018-11-21T18:47:00.425Z,53.10
2018-11-21T18:57:51.014Z,59.40
2018-11-21T19:08:09.348Z,77.60
2018-11-21T19:18:27.706Z,70.90
2018-11-21T19:28:45.929Z,84.00
2018-11-21T19:39:05.704Z,94.97
2018-11-21T19:49:23.707Z,153.80
2018-11-21T19:59:43.588Z,141.83
2018-11-21T20:09:59.401Z,123.67
2018-11-21T20:20:19.178Z,129.43
2018-11-21T20:30:38.578Z,137.83
2018-11-21T20:40:56.250Z,154.37
2018-11-21T20:51:14.231Z,210.10
2018-11-21T21:01:32.051Z,212.67
2018-11-21T21:11:50.324Z,183.60
2018-11-21T21:22:08.798Z,203.63
2018-11-21T21:32:26.934Z,220.47
2018-11-21T21:42:45.747Z,231.40
2018-11-21T21:53:04.470Z,367.83
2018-11-21T22:03:22.985Z,181.83
2018-11-21T22:13:40.949Z,176.33
2018-11-21T22:23:59.708Z,197.80
2018-11-21T22:34:18.631Z,239.70
2018-11-21T22:44:36.326Z,299.40
2018-11-21T22:54:54.396Z,402.40
2018-11-21T23:05:12.763Z,337.80
2018-11-21T23:15:31.128Z,310.73
2018-11-21T23:25:49.197Z,224.20
2018-11-21T23:36:07.306Z,273.03
2018-11-21T23:46:26.033Z,297.30
2018-11-21T23:56:44.241Z,239.27
